Mehdi Hosseini

Olheiro - Siah Jamegan
3 Dez 2028
Domingo
Processo

Personalidade

Adaptabilidade (3) Ambição (15) Controvérsia (6) Lealdade (1) Pressão (13) Profissionalismo (1) Espírito Esportivo (4) Temperamento (11)

Perfil

Estilo de Treinamento Democrático
Licença Continental B
Determinação 6
Gestão de Pessoas 3
Motivação 5
Disciplina 6
Satisfação no Trabalho
100%
Fadiga
0%
Função Olheiro
Salário 11.5K p/s
Contrato 14.03.2030

Desempenho

Comportamento Bom
Eficácia do Treinamento
26%
Desenvolvimento do Jogador
25%
Prevenção de Lesões
25%
Implementação Tática
25%

Eventos Recentes

Avaliou um jogador agora
Participou de uma reunião de recrutamento agora
Recomendou um alvo de transferência agora
Recomendou um alvo de transferência agora
Avaliou um jogador 7d atrás
Avaliou um jogador 7d atrás
Avaliou um jogador 7d atrás
Avaliou um jogador 7d atrás

Monitorando agora

77
Jogador Clube Status Habilidade Confiança Observado Última observação Último voto
Agustín Gallo Tristán Suárez Ativo 114 / 104 40% 4 01.12.2028 -
Enzo González Defensores Ativo 102 / 117 40% 5 01.12.2028 -
Ronny Maza Aragua Ativo 99 / 90 40% 1 01.12.2028 -
Alejo Cruz Juventud Ativo 118 / 117 40% 4 28.11.2028 -
Camilo Machado Madryn Ativo 113 / 96 40% 3 28.11.2028 -
Alexander Díaz Deportivo Riestra Ativo 132 / 115 40% 1 28.11.2028 -
Sebastián Marfort Racing Ativo 102 / 94 40% 2 27.11.2028 -
Sebastián Castillo Deportivo La Guaira Ativo 119 / 116 40% 1 27.11.2028 -
Salomon Ramirez Atletico Venezuela Ativo 103 / 93 40% 1 27.11.2028 -
Maclyn Biokpo Jenewari Rivers United Ativo 105 / 92 40% 3 26.11.2028 -
Gianluca Pugliese Güemes Ativo 120 / 113 40% 2 26.11.2028 -
Ibrahim Yahaya Barau Ativo 106 / 89 40% 1 26.11.2028 -
Chukwudi Okoro Warri Wolves Ativo 94 / 69 40% 1 25.11.2028 -
Nicolás González Cerro Largo Ativo 110 / 101 40% 1 25.11.2028 -
Chineme Chinonso Ikorodu City Ativo 93 / 95 40% 2 23.11.2028 -
Jerónimo Porto Lapegüe San Telmo Ativo 106 / 100 40% 2 23.11.2028 -
Lisandro Cabrera Maipú Ativo 115 / 119 40% 4 21.11.2028 -
Kingsley Maduforo Enyimba Ativo 99 / 107 40% 2 21.11.2028 -
Sebastián de Marco Fenix Ativo 108 / 94 40% 1 21.11.2028 -
Ganiyu Wasiu Shooting Stars Ativo 82 / 71 40% 2 20.11.2028 -
Marco Miori Alvarado Ativo 113 / 111 40% 1 20.11.2028 -
Abubakar Garba Nasarawa United Ativo 97 / 93 40% 1 20.11.2028 -
Santiago Sala Güemes Ativo 119 / 122 40% 2 19.11.2028 -
Chukwuemeka Obioma Abia Warriors Ativo 96 / 111 40% 2 19.11.2028 -
Joaquín Zappacosta Morón Ativo 94 / 108 40% 1 19.11.2028 -
Joseph Arumala Ikorodu City Ativo 97 / 103 40% 4 18.11.2028 -
Augusto Berrondo Tristán Suárez Ativo 107 / 99 40% 2 18.11.2028 -
Kabiru Abdullahi Barau Ativo 101 / 90 40% 2 17.11.2028 -
Alexander González Cerro Ativo 111 / 120 40% 1 17.11.2028 -
Auwalu Ali Malam Kano Pillars Ativo 102 / 96 40% 1 17.11.2028 -
Renzo Reynaga Patronato Ativo 110 / 110 40% 2 13.11.2028 -
Emiliano Gómez Boston River Ativo 125 / 123 40% 1 13.11.2028 -
Facundo Krüger Temperley Ativo 120 / 126 40% 3 10.11.2028 -
Ignacio Yepez Cerrito Ativo 120 / 122 40% 1 10.11.2028 -
Facundo de León Progreso Ativo 115 / 123 40% 1 10.11.2028 -
Junior Paredes Trujillanos Ativo 105 / 111 40% 2 09.11.2028 -
Francisco Bonfiglio Boston River Ativo 117 / 121 40% 1 09.11.2028 -
Umar Ada Nasarawa United Ativo 96 / 106 40% 1 09.11.2028 -
Rafael Moreno Atletico Venezuela Ativo 118 / 113 40% 2 07.11.2028 -
Daniel Barrea Godoy Cruz Ativo 133 / 127 40% 5 07.11.2028 -
Clemente Montes Santiago Wanderers Ativo 123 / 123 40% 1 05.11.2028 -
Ismail Sarki Niger Tornadoes Ativo 85 / 102 40% 2 04.11.2028 -
Juan Rocca Gimnasia y Tiro Ativo 103 / 115 40% 1 04.11.2028 -
Samuel Anakwe Remo Stars Ativo 89 / 96 40% 1 04.11.2028 -
Eshimitu Gomino Eya Nasarawa United Ativo 95 / 80 40% 1 03.11.2028 -
Jeriel De Santis Caracas Ativo 102 / 116 40% 1 03.11.2028 -
Mauricio Márquez Caracas Ativo 105 / 97 40% 1 02.11.2028 -
Esteban Obregón Montevideo City Torque Ativo 127 / 122 40% 2 01.11.2028 -
Alao Dabani Nasarawa United Ativo 85 / 110 40% 1 01.11.2028 -
Tomás Blanco Estudiantes Ativo 109 / 116 40% 1 01.11.2028 -
Maren Kefas Plateau United Ativo 104 / 113 40% 1 29.10.2028 -
Waheed Adebayo Rangers International Ativo 83 / 81 40% 1 29.10.2028 -
Juan Peinipil Madryn Ativo 105 / 100 40% 1 26.10.2028 -
Mauro Valiente Estudiantes Ativo 119 / 112 40% 1 25.10.2028 -
Juan David Rueda Alianza Petrolera Ativo 119 / 104 40% 1 25.10.2028 -
David Maguicha Atlanta Ativo 92 / 91 40% 1 22.10.2028 -
Cristian Barros Cerro Ativo 108 / 95 40% 1 17.10.2028 -
César Magallan Estudiantes de Merida Ativo 107 / 116 40% 2 16.10.2028 -
Suraju Lawal Remo Stars Ativo 89 / 105 40% 1 16.10.2028 -
Agustín Rodríguez Juventud Ativo 133 / 123 40% 1 14.10.2028 -
Adeshina Gata Kwara United Ativo 87 / 92 40% 1 12.10.2028 -
Álvaro López Plaza Colonia Ativo 122 / 113 40% 1 12.10.2028 -
Augustine Nwaorisa Enyimba Ativo 106 / 80 40% 1 12.10.2028 -
Stanley Amon Bayelsa United Ativo 101 / 99 40% 1 11.10.2028 -
Nahuel da Silva Montevideo City Torque Ativo 102 / 106 40% 1 09.10.2028 -
Esteban da Silva Racing Ativo 114 / 114 40% 1 06.10.2028 -
Renzo Conechny Tristán Suárez Ativo 115 / 109 40% 1 05.10.2028 -
Walter Núñez Montevideo City Torque Ativo 121 / 123 40% 1 05.10.2028 -
Ronaldo Peña Deportivo Lara Ativo 104 / 97 40% 1 03.10.2028 -
Uche Collins Bendel Insurance Ativo 94 / 110 40% 1 02.10.2028 -
Facundo Milán Central Espanol Ativo 106 / 101 40% 1 02.10.2028 -
Amir Torabi Zob Ahan Ativo 78 / 92 69% 1 21.08.2028 Aprovar
Kimarni Smith Newport County Ativo 113 / 97 40% 1 08.08.2028 -
Stephen Humphrys Bradford City Ativo 122 / 116 40% 1 08.08.2028 -
Seidu Basit Ashanti Gold Ativo 108 / 103 40% 1 31.05.2028 -
Reza Nekounam Rah Ahan Ativo 128 / 128 42% 1 / 1m 01.03.2028 -
Roham Mohammad Taghizadeh Persepolis Ativo 87 / 75 69% 1 17.01.2028 Aprovar